Ashland, OH

10:04 PM EDT on April 27, 2015 (GMT -0400)
US Hwy 42 - Ashland, OH 44805 | | Change Station
CLOSE
Current Station
Personal Weather Station
Location: Ashland, OH
Elevation: 1165 ft
Nearby Weather Stations

Elev 1165 ft 40.83 °N, 82.38 °W | Updated 12 seconds ago

Partly Cloudy
Partly Cloudy
42.8 °F
Feels Like 43 °F
N
0.0
Wind Variable Wind from North
Gusts 0.0 mph

Today
High -- | Low -- °F
--% Chance of Precip.
Yesterday
High -- | Low -- °F
Precip. -- in
6:33 AM 8:21 PM
Waxing Gibbous, 69% visible
Pressure 30.08 in
Visibility 10.0 miles
Clouds Overcast 3600 ft
Windchill 43 °F
Dew Point 43 °F
Humidity 100%
Rainfall 0.00 in
Snow Depth Not available.
UV 0 out of 12
Pollen 9.60 out of 12
Air Quality Not available.
Flu Activity Regional
METAR KMFD 280152Z 33003KT 10SM OVC036 05/02 A3006 RMK AO2 SLP186 T00500017

More Conditions Fewer Conditions

Pressure 30.08 in
Visibility 10.0 miles
Clouds Overcast 3600 ft
Windchill 43 °F
Dew Point 43 °F
Humidity 100%
Rainfall 0.00 in
Snow Depth Not available.
UV 0 out of 12
Pollen 9.60 out of 12
Air Quality Not available.
Flu Activity Regional
METAR KMFD 280152Z 33003KT 10SM OVC036 05/02 A3006 RMK AO2 SLP186 T00500017

More Conditions Fewer Conditions

10-Day Weather Forecast

Almanac

Astronomy

Apr. 27, 2015 Rise Set
Actual Time
Civil Twilight
Nautical Twilight
Astronomical Twilight
Moon
Length of Visible Light
Length of Day
Tomorrow will be .
, % of the Moon is Illuminated

Today's Extremes

State Highs State Lows

Community

WunderPhotos

Upload Photos

1,817,508 photos uploaded!

WunderBlogs® & News

Nearby

Air Quality

  Air Quality AQ Index Pollutant
Not available.

Snow Depth

Station Depth Elevation

Earthquake Activity

City Distance Mag. Time & Date
Minimum magnitude displayed is 2.5.

Coastal Water Temperatures

Place Temperature

Stations

Nearby Weather Stations

Station Location Temp. Windchill Dew Point Humidity Wind Precip. Elev Updated Type